sensor_id;sensor_type;location;lat;lon;timestamp;temperature;humidity
53045;DHT22;38930;52.766;6.884;2024-03-29T00:00:40;8.20;99.90
53045;DHT22;38930;52.766;6.884;2024-03-29T00:03:06;8.20;99.90
53045;DHT22;38930;52.766;6.884;2024-03-29T00:05:33;8.20;99.90
53045;DHT22;38930;52.766;6.884;2024-03-29T00:07:59;8.20;99.90
53045;DHT22;38930;52.766;6.884;2024-03-29T00:10:24;8.20;99.90
53045;DHT22;38930;52.766;6.884;2024-03-29T00:12:50;8.10;99.90
53045;DHT22;38930;52.766;6.884;2024-03-29T00:15:16;8.10;99.90
53045;DHT22;38930;52.766;6.884;2024-03-29T00:17:41;8.10;99.90
53045;DHT22;38930;52.766;6.884;2024-03-29T00:20:07;8.10;99.90
53045;DHT22;38930;52.766;6.884;2024-03-29T00:22:34;8.10;99.90
53045;DHT22;38930;52.766;6.884;2024-03-29T00:24:59;8.40;99.90
53045;DHT22;38930;52.766;6.884;2024-03-29T00:27:25;8.00;99.90
53045;DHT22;38930;52.766;6.884;2024-03-29T00:29:52;8.10;99.90
53045;DHT22;38930;52.766;6.884;2024-03-29T00:32:21;8.00;99.90
53045;DHT22;38930;52.766;6.884;2024-03-29T00:34:49;8.00;99.90
53045;DHT22;38930;52.766;6.884;2024-03-29T00:37:15;8.00;99.90
53045;DHT22;38930;52.766;6.884;2024-03-29T00:39:41;8.70;99.90
53045;DHT22;38930;52.766;6.884;2024-03-29T00:42:07;8.00;99.90
53045;DHT22;38930;52.766;6.884;2024-03-29T00:44:34;7.90;99.90
53045;DHT22;38930;52.766;6.884;2024-03-29T00:47:04;7.90;99.90
53045;DHT22;38930;52.766;6.884;2024-03-29T00:49:29;8.20;99.90
53045;DHT22;38930;52.766;6.884;2024-03-29T00:51:55;7.90;99.90
53045;DHT22;38930;52.766;6.884;2024-03-29T00:54:21;7.90;99.90
53045;DHT22;38930;52.766;6.884;2024-03-29T00:56:49;7.90;99.90
53045;DHT22;38930;52.766;6.884;2024-03-29T00:59:15;7.90;99.90
53045;DHT22;38930;52.766;6.884;2024-03-29T01:01:40;8.00;99.90
53045;DHT22;38930;52.766;6.884;2024-03-29T01:04:06;7.90;99.90
53045;DHT22;38930;52.766;6.884;2024-03-29T01:06:31;8.00;99.90
53045;DHT22;38930;52.766;6.884;2024-03-29T01:08:57;8.20;99.90
53045;DHT22;38930;52.766;6.884;2024-03-29T01:11:23;8.00;99.90
53045;DHT22;38930;52.766;6.884;2024-03-29T01:13:49;8.00;99.90
53045;DHT22;38930;52.766;6.884;2024-03-29T01:16:14;8.00;99.90
53045;DHT22;38930;52.766;6.884;2024-03-29T01:18:40;8.00;99.90
53045;DHT22;38930;52.766;6.884;2024-03-29T01:21:09;7.90;99.90
53045;DHT22;38930;52.766;6.884;2024-03-29T01:23:34;8.10;99.90
53045;DHT22;38930;52.766;6.884;2024-03-29T01:26:00;8.00;99.90
53045;DHT22;38930;52.766;6.884;2024-03-29T01:28:26;8.40;99.90
53045;DHT22;38930;52.766;6.884;2024-03-29T01:30:55;8.00;99.90
53045;DHT22;38930;52.766;6.884;2024-03-29T01:33:21;8.00;99.90
53045;DHT22;38930;52.766;6.884;2024-03-29T01:35:47;8.00;99.90
53045;DHT22;38930;52.766;6.884;2024-03-29T01:38:14;8.80;99.90
53045;DHT22;38930;52.766;6.884;2024-03-29T01:40:39;8.10;99.90
53045;DHT22;38930;52.766;6.884;2024-03-29T01:43:05;7.90;99.90
53045;DHT22;38930;52.766;6.884;2024-03-29T01:45:31;7.90;99.90
53045;DHT22;38930;52.766;6.884;2024-03-29T01:47:56;8.90;99.90
53045;DHT22;38930;52.766;6.884;2024-03-29T01:50:22;7.90;99.90
53045;DHT22;38930;52.766;6.884;2024-03-29T01:52:49;8.70;99.90
53045;DHT22;38930;52.766;6.884;2024-03-29T01:55:16;8.00;99.90
53045;DHT22;38930;52.766;6.884;2024-03-29T01:57:42;7.90;99.90
53045;DHT22;38930;52.766;6.884;2024-03-29T02:00:08;8.00;99.90
53045;DHT22;38930;52.766;6.884;2024-03-29T02:02:36;8.00;99.90
53045;DHT22;38930;52.766;6.884;2024-03-29T02:05:02;8.00;99.90
53045;DHT22;38930;52.766;6.884;2024-03-29T02:07:30;8.00;99.90
53045;DHT22;38930;52.766;6.884;2024-03-29T02:09:55;8.00;99.90
53045;DHT22;38930;52.766;6.884;2024-03-29T02:12:21;8.00;99.90
53045;DHT22;38930;52.766;6.884;2024-03-29T02:14:47;8.00;99.90
53045;DHT22;38930;52.766;6.884;2024-03-29T02:17:12;8.00;99.90
53045;DHT22;38930;52.766;6.884;2024-03-29T02:19:38;8.00;99.90
53045;DHT22;38930;52.766;6.884;2024-03-29T02:22:05;8.60;99.90
53045;DHT22;38930;52.766;6.884;2024-03-29T02:24:31;8.00;99.90
53045;DHT22;38930;52.766;6.884;2024-03-29T02:26:57;8.70;99.90
53045;DHT22;38930;52.766;6.884;2024-03-29T02:29:23;8.00;99.90
53045;DHT22;38930;52.766;6.884;2024-03-29T02:31:49;8.00;99.90
53045;DHT22;38930;52.766;6.884;2024-03-29T02:34:15;8.00;99.90
53045;DHT22;38930;52.766;6.884;2024-03-29T02:36:41;8.00;99.90
53045;DHT22;38930;52.766;6.884;2024-03-29T02:39:09;7.90;99.90
53045;DHT22;38930;52.766;6.884;2024-03-29T02:41:34;7.90;99.90
53045;DHT22;38930;52.766;6.884;2024-03-29T02:44:00;7.90;99.90
53045;DHT22;38930;52.766;6.884;2024-03-29T02:46:26;8.60;99.90
53045;DHT22;38930;52.766;6.884;2024-03-29T02:48:51;7.80;99.90
53045;DHT22;38930;52.766;6.884;2024-03-29T02:51:17;7.80;99.90
53045;DHT22;38930;52.766;6.884;2024-03-29T02:53:43;7.80;99.90
53045;DHT22;38930;52.766;6.884;2024-03-29T02:56:08;8.20;99.90
53045;DHT22;38930;52.766;6.884;2024-03-29T02:58:37;7.80;99.90
53045;DHT22;38930;52.766;6.884;2024-03-29T03:01:09;7.80;99.90
53045;DHT22;38930;52.766;6.884;2024-03-29T03:03:35;8.30;99.90
53045;DHT22;38930;52.766;6.884;2024-03-29T03:06:01;7.80;99.90
53045;DHT22;38930;52.766;6.884;2024-03-29T03:08:29;7.80;99.90
53045;DHT22;38930;52.766;6.884;2024-03-29T03:11:13;7.70;99.90
53045;DHT22;38930;52.766;6.884;2024-03-29T03:13:39;7.80;99.90
53045;DHT22;38930;52.766;6.884;2024-03-29T03:16:05;7.70;99.90
53045;DHT22;38930;52.766;6.884;2024-03-29T03:18:31;7.70;99.90
53045;DHT22;38930;52.766;6.884;2024-03-29T03:20:57;7.80;99.90
53045;DHT22;38930;52.766;6.884;2024-03-29T03:23:24;7.70;99.90
53045;DHT22;38930;52.766;6.884;2024-03-29T03:26:00;7.70;99.90
53045;DHT22;38930;52.766;6.884;2024-03-29T03:28:26;7.80;99.90
53045;DHT22;38930;52.766;6.884;2024-03-29T03:30:53;7.70;99.90
53045;DHT22;38930;52.766;6.884;2024-03-29T03:33:19;7.90;99.90
53045;DHT22;38930;52.766;6.884;2024-03-29T03:35:46;7.70;99.90
53045;DHT22;38930;52.766;6.884;2024-03-29T03:38:12;7.70;99.90
53045;DHT22;38930;52.766;6.884;2024-03-29T03:40:38;7.70;99.90
53045;DHT22;38930;52.766;6.884;2024-03-29T03:43:04;7.70;99.90
53045;DHT22;38930;52.766;6.884;2024-03-29T03:45:38;7.70;99.90
53045;DHT22;38930;52.766;6.884;2024-03-29T03:48:06;7.70;99.90
53045;DHT22;38930;52.766;6.884;2024-03-29T03:50:33;7.70;99.90
53045;DHT22;38930;52.766;6.884;2024-03-29T03:52:59;7.70;99.90
53045;DHT22;38930;52.766;6.884;2024-03-29T03:55:24;7.70;99.90
53045;DHT22;38930;52.766;6.884;2024-03-29T03:57:50;7.70;99.90
53045;DHT22;38930;52.766;6.884;2024-03-29T04:00:18;7.70;99.90
53045;DHT22;38930;52.766;6.884;2024-03-29T04:02:51;7.70;99.90
53045;DHT22;38930;52.766;6.884;2024-03-29T04:05:18;7.70;99.90
53045;DHT22;38930;52.766;6.884;2024-03-29T04:07:44;7.70;99.90
53045;DHT22;38930;52.766;6.884;2024-03-29T04:10:10;8.30;99.90
53045;DHT22;38930;52.766;6.884;2024-03-29T04:12:35;7.70;99.90
53045;DHT22;38930;52.766;6.884;2024-03-29T04:15:01;7.70;99.90
53045;DHT22;38930;52.766;6.884;2024-03-29T04:17:28;7.70;99.90
53045;DHT22;38930;52.766;6.884;2024-03-29T04:19:56;7.70;99.90
53045;DHT22;38930;52.766;6.884;2024-03-29T04:22:22;8.50;99.90
53045;DHT22;38930;52.766;6.884;2024-03-29T04:24:48;7.60;99.90
53045;DHT22;38930;52.766;6.884;2024-03-29T04:27:14;7.60;99.90
53045;DHT22;38930;52.766;6.884;2024-03-29T04:29:39;7.60;99.90
53045;DHT22;38930;52.766;6.884;2024-03-29T04:32:05;7.60;99.90
53045;DHT22;38930;52.766;6.884;2024-03-29T04:34:31;7.60;99.90
53045;DHT22;38930;52.766;6.884;2024-03-29T04:36:56;7.60;99.90
53045;DHT22;38930;52.766;6.884;2024-03-29T04:39:22;7.70;99.90
53045;DHT22;38930;52.766;6.884;2024-03-29T04:41:48;7.70;99.90
53045;DHT22;38930;52.766;6.884;2024-03-29T04:44:22;7.70;99.90
53045;DHT22;38930;52.766;6.884;2024-03-29T04:46:49;7.80;99.90
53045;DHT22;38930;52.766;6.884;2024-03-29T04:49:15;7.80;99.90
53045;DHT22;38930;52.766;6.884;2024-03-29T04:51:43;7.80;99.90
53045;DHT22;38930;52.766;6.884;2024-03-29T04:54:08;7.70;99.90
53045;DHT22;38930;52.766;6.884;2024-03-29T04:56:34;7.90;99.90
53045;DHT22;38930;52.766;6.884;2024-03-29T04:59:02;7.90;99.90
53045;DHT22;38930;52.766;6.884;2024-03-29T05:01:28;8.60;99.90
53045;DHT22;38930;52.766;6.884;2024-03-29T05:03:53;8.10;99.90
53045;DHT22;38930;52.766;6.884;2024-03-29T05:06:19;8.20;99.90
53045;DHT22;38930;52.766;6.884;2024-03-29T05:08:45;8.20;99.90
53045;DHT22;38930;52.766;6.884;2024-03-29T05:11:10;8.30;99.90
53045;DHT22;38930;52.766;6.884;2024-03-29T05:13:39;8.40;99.90
53045;DHT22;38930;52.766;6.884;2024-03-29T05:16:05;8.30;99.90
53045;DHT22;38930;52.766;6.884;2024-03-29T05:18:31;8.40;99.90
53045;DHT22;38930;52.766;6.884;2024-03-29T05:20:57;8.50;99.90
53045;DHT22;38930;52.766;6.884;2024-03-29T05:23:22;8.60;99.90
53045;DHT22;38930;52.766;6.884;2024-03-29T05:25:48;8.50;99.90
53045;DHT22;38930;52.766;6.884;2024-03-29T05:28:15;8.50;99.90
53045;DHT22;38930;52.766;6.884;2024-03-29T05:30:40;8.50;99.90
53045;DHT22;38930;52.766;6.884;2024-03-29T05:33:06;8.60;99.90
53045;DHT22;38930;52.766;6.884;2024-03-29T05:35:34;9.10;99.90
53045;DHT22;38930;52.766;6.884;2024-03-29T05:38:00;8.60;99.90
53045;DHT22;38930;52.766;6.884;2024-03-29T05:40:26;8.60;99.90
53045;DHT22;38930;52.766;6.884;2024-03-29T05:42:53;9.40;99.90
53045;DHT22;38930;52.766;6.884;2024-03-29T05:45:27;8.60;99.90
53045;DHT22;38930;52.766;6.884;2024-03-29T05:47:54;8.80;99.90
53045;DHT22;38930;52.766;6.884;2024-03-29T05:50:21;8.70;99.90
53045;DHT22;38930;52.766;6.884;2024-03-29T05:52:46;8.70;99.90
53045;DHT22;38930;52.766;6.884;2024-03-29T05:55:12;8.70;99.90
53045;DHT22;38930;52.766;6.884;2024-03-29T05:57:38;8.70;99.90
53045;DHT22;38930;52.766;6.884;2024-03-29T06:00:07;9.60;99.90
53045;DHT22;38930;52.766;6.884;2024-03-29T06:02:34;8.70;99.90
53045;DHT22;38930;52.766;6.884;2024-03-29T06:05:00;9.60;99.90
53045;DHT22;38930;52.766;6.884;2024-03-29T06:07:26;8.70;99.90
53045;DHT22;38930;52.766;6.884;2024-03-29T06:09:54;8.70;99.90
53045;DHT22;38930;52.766;6.884;2024-03-29T06:12:20;9.60;99.90
53045;DHT22;38930;52.766;6.884;2024-03-29T06:14:46;8.60;99.90
53045;DHT22;38930;52.766;6.884;2024-03-29T06:17:30;8.80;99.90
53045;DHT22;38930;52.766;6.884;2024-03-29T06:19:56;8.60;99.90
53045;DHT22;38930;52.766;6.884;2024-03-29T06:22:23;8.50;99.90
53045;DHT22;38930;52.766;6.884;2024-03-29T06:24:50;8.50;99.90
53045;DHT22;38930;52.766;6.884;2024-03-29T06:27:17;8.50;99.90
53045;DHT22;38930;52.766;6.884;2024-03-29T06:29:44;8.40;99.90
53045;DHT22;38930;52.766;6.884;2024-03-29T06:32:10;8.40;99.90
53045;DHT22;38930;52.766;6.884;2024-03-29T06:34:36;8.90;99.90
53045;DHT22;38930;52.766;6.884;2024-03-29T06:37:02;8.30;99.90
53045;DHT22;38930;52.766;6.884;2024-03-29T06:39:27;8.30;99.90
53045;DHT22;38930;52.766;6.884;2024-03-29T06:41:53;8.20;99.90
53045;DHT22;38930;52.766;6.884;2024-03-29T06:44:19;8.20;99.90
53045;DHT22;38930;52.766;6.884;2024-03-29T06:46:45;8.60;99.90
53045;DHT22;38930;52.766;6.884;2024-03-29T06:49:11;8.10;99.90
53045;DHT22;38930;52.766;6.884;2024-03-29T06:51:38;8.00;99.90
53045;DHT22;38930;52.766;6.884;2024-03-29T06:54:04;8.70;99.90
53045;DHT22;38930;52.766;6.884;2024-03-29T06:56:29;7.90;99.90
53045;DHT22;38930;52.766;6.884;2024-03-29T06:58:55;7.80;99.90
53045;DHT22;38930;52.766;6.884;2024-03-29T07:01:21;7.90;99.90
53045;DHT22;38930;52.766;6.884;2024-03-29T07:03:47;7.80;99.90
53045;DHT22;38930;52.766;6.884;2024-03-29T07:06:12;7.70;99.90
53045;DHT22;38930;52.766;6.884;2024-03-29T07:08:38;7.60;99.90
53045;DHT22;38930;52.766;6.884;2024-03-29T07:11:04;7.60;99.90
53045;DHT22;38930;52.766;6.884;2024-03-29T07:13:30;7.60;99.90
53045;DHT22;38930;52.766;6.884;2024-03-29T07:16:00;7.70;99.90
53045;DHT22;38930;52.766;6.884;2024-03-29T07:18:26;7.70;99.90
53045;DHT22;38930;52.766;6.884;2024-03-29T07:20:52;7.60;99.90
53045;DHT22;38930;52.766;6.884;2024-03-29T07:23:17;7.60;99.90
53045;DHT22;38930;52.766;6.884;2024-03-29T07:25:45;7.60;99.90
53045;DHT22;38930;52.766;6.884;2024-03-29T07:28:11;7.80;99.90
53045;DHT22;38930;52.766;6.884;2024-03-29T07:30:43;7.60;99.90
53045;DHT22;38930;52.766;6.884;2024-03-29T07:33:09;7.60;99.90
53045;DHT22;38930;52.766;6.884;2024-03-29T07:35:36;7.80;99.90
53045;DHT22;38930;52.766;6.884;2024-03-29T07:38:01;7.60;99.90
53045;DHT22;38930;52.766;6.884;2024-03-29T07:40:27;7.60;99.90
53045;DHT22;38930;52.766;6.884;2024-03-29T07:42:53;7.60;99.90
53045;DHT22;38930;52.766;6.884;2024-03-29T07:45:18;8.10;99.90
53045;DHT22;38930;52.766;6.884;2024-03-29T07:47:44;7.60;99.90
53045;DHT22;38930;52.766;6.884;2024-03-29T07:50:09;7.60;99.90
53045;DHT22;38930;52.766;6.884;2024-03-29T07:52:35;7.70;99.90
53045;DHT22;38930;52.766;6.884;2024-03-29T07:55:01;8.50;99.90
53045;DHT22;38930;52.766;6.884;2024-03-29T07:57:27;7.80;99.90
53045;DHT22;38930;52.766;6.884;2024-03-29T07:59:52;8.00;99.90
53045;DHT22;38930;52.766;6.884;2024-03-29T08:02:18;8.50;99.90
53045;DHT22;38930;52.766;6.884;2024-03-29T08:04:43;7.90;99.90
53045;DHT22;38930;52.766;6.884;2024-03-29T08:07:10;7.90;99.90
53045;DHT22;38930;52.766;6.884;2024-03-29T08:09:37;7.80;99.90
53045;DHT22;38930;52.766;6.884;2024-03-29T08:12:05;7.80;99.90
53045;DHT22;38930;52.766;6.884;2024-03-29T08:14:30;7.80;99.90
53045;DHT22;38930;52.766;6.884;2024-03-29T08:16:56;7.80;99.90
53045;DHT22;38930;52.766;6.884;2024-03-29T08:19:21;7.80;99.90
53045;DHT22;38930;52.766;6.884;2024-03-29T08:21:47;7.90;99.90
53045;DHT22;38930;52.766;6.884;2024-03-29T08:24:12;7.90;99.90
53045;DHT22;38930;52.766;6.884;2024-03-29T08:26:38;7.90;99.90
53045;DHT22;38930;52.766;6.884;2024-03-29T08:29:04;7.80;99.90
53045;DHT22;38930;52.766;6.884;2024-03-29T08:31:29;8.10;99.90
53045;DHT22;38930;52.766;6.884;2024-03-29T08:33:55;7.90;99.90
53045;DHT22;38930;52.766;6.884;2024-03-29T08:36:20;8.60;99.90
53045;DHT22;38930;52.766;6.884;2024-03-29T08:38:46;7.90;99.90
53045;DHT22;38930;52.766;6.884;2024-03-29T08:41:13;7.90;99.90
53045;DHT22;38930;52.766;6.884;2024-03-29T08:43:38;8.00;99.90
53045;DHT22;38930;52.766;6.884;2024-03-29T08:46:04;8.00;99.90
53045;DHT22;38930;52.766;6.884;2024-03-29T08:48:30;8.00;99.90
53045;DHT22;38930;52.766;6.884;2024-03-29T08:50:55;8.00;99.90
53045;DHT22;38930;52.766;6.884;2024-03-29T08:53:21;8.60;99.90
53045;DHT22;38930;52.766;6.884;2024-03-29T08:55:52;8.10;99.90
53045;DHT22;38930;52.766;6.884;2024-03-29T08:58:18;8.10;99.90
53045;DHT22;38930;52.766;6.884;2024-03-29T09:00:53;8.80;99.90
53045;DHT22;38930;52.766;6.884;2024-03-29T09:03:19;8.00;99.90
53045;DHT22;38930;52.766;6.884;2024-03-29T09:05:45;8.00;99.90
53045;DHT22;38930;52.766;6.884;2024-03-29T09:08:10;8.10;99.90
53045;DHT22;38930;52.766;6.884;2024-03-29T09:10:39;8.10;99.90
53045;DHT22;38930;52.766;6.884;2024-03-29T09:13:04;8.10;99.90
53045;DHT22;38930;52.766;6.884;2024-03-29T09:15:32;8.20;99.90
53045;DHT22;38930;52.766;6.884;2024-03-29T09:17:58;8.50;99.90
53045;DHT22;38930;52.766;6.884;2024-03-29T09:20:28;8.20;99.90
53045;DHT22;38930;52.766;6.884;2024-03-29T09:22:53;8.50;99.90
53045;DHT22;38930;52.766;6.884;2024-03-29T09:25:19;8.20;99.90
53045;DHT22;38930;52.766;6.884;2024-03-29T09:27:47;8.20;99.90
53045;DHT22;38930;52.766;6.884;2024-03-29T09:30:14;8.20;99.90
53045;DHT22;38930;52.766;6.884;2024-03-29T09:32:40;8.30;99.90
53045;DHT22;38930;52.766;6.884;2024-03-29T09:35:07;8.30;99.90
53045;DHT22;38930;52.766;6.884;2024-03-29T09:37:32;8.30;99.90
53045;DHT22;38930;52.766;6.884;2024-03-29T09:40:02;8.40;99.90
53045;DHT22;38930;52.766;6.884;2024-03-29T09:42:33;8.90;99.90
53045;DHT22;38930;52.766;6.884;2024-03-29T09:45:01;8.50;99.90
53045;DHT22;38930;52.766;6.884;2024-03-29T09:47:28;8.70;99.90
53045;DHT22;38930;52.766;6.884;2024-03-29T09:49:56;8.80;99.90
53045;DHT22;38930;52.766;6.884;2024-03-29T09:52:24;9.00;99.90
53045;DHT22;38930;52.766;6.884;2024-03-29T09:54:49;9.20;99.90
53045;DHT22;38930;52.766;6.884;2024-03-29T09:57:16;9.40;99.90
53045;DHT22;38930;52.766;6.884;2024-03-29T09:59:42;9.50;99.90
53045;DHT22;38930;52.766;6.884;2024-03-29T10:02:15;10.20;99.90
53045;DHT22;38930;52.766;6.884;2024-03-29T10:04:42;9.70;99.90
53045;DHT22;38930;52.766;6.884;2024-03-29T10:07:08;9.80;99.90
53045;DHT22;38930;52.766;6.884;2024-03-29T10:09:36;10.30;99.90
53045;DHT22;38930;52.766;6.884;2024-03-29T10:12:02;9.80;99.90
53045;DHT22;38930;52.766;6.884;2024-03-29T10:14:30;9.90;99.90
53045;DHT22;38930;52.766;6.884;2024-03-29T10:16:58;10.10;99.90
53045;DHT22;38930;52.766;6.884;2024-03-29T10:19:23;10.30;99.90
53045;DHT22;38930;52.766;6.884;2024-03-29T10:21:49;10.40;99.90
53045;DHT22;38930;52.766;6.884;2024-03-29T10:24:15;10.90;99.90
53045;DHT22;38930;52.766;6.884;2024-03-29T10:26:46;10.60;99.90
53045;DHT22;38930;52.766;6.884;2024-03-29T10:29:13;10.80;99.90
53045;DHT22;38930;52.766;6.884;2024-03-29T10:31:38;10.80;99.90
53045;DHT22;38930;52.766;6.884;2024-03-29T10:34:04;10.90;99.90
53045;DHT22;38930;52.766;6.884;2024-03-29T10:36:34;10.90;99.90
53045;DHT22;38930;52.766;6.884;2024-03-29T10:39:09;11.10;99.90
53045;DHT22;38930;52.766;6.884;2024-03-29T10:41:41;11.40;99.90
53045;DHT22;38930;52.766;6.884;2024-03-29T10:44:09;11.10;99.90
53045;DHT22;38930;52.766;6.884;2024-03-29T10:46:37;11.10;99.90
53045;DHT22;38930;52.766;6.884;2024-03-29T10:49:07;11.00;99.90
53045;DHT22;38930;52.766;6.884;2024-03-29T10:51:40;11.00;99.90
53045;DHT22;38930;52.766;6.884;2024-03-29T10:54:09;11.00;99.90
53045;DHT22;38930;52.766;6.884;2024-03-29T10:56:36;11.00;99.90
53045;DHT22;38930;52.766;6.884;2024-03-29T10:59:12;11.20;99.90
53045;DHT22;38930;52.766;6.884;2024-03-29T11:01:41;11.30;99.90
53045;DHT22;38930;52.766;6.884;2024-03-29T11:04:13;11.30;99.90
53045;DHT22;38930;52.766;6.884;2024-03-29T11:06:42;11.40;99.90
53045;DHT22;38930;52.766;6.884;2024-03-29T11:09:12;11.60;99.90
53045;DHT22;38930;52.766;6.884;2024-03-29T11:11:41;11.50;99.90
53045;DHT22;38930;52.766;6.884;2024-03-29T11:14:14;11.70;99.90
53045;DHT22;38930;52.766;6.884;2024-03-29T11:16:41;11.70;99.90
53045;DHT22;38930;52.766;6.884;2024-03-29T11:19:13;12.00;99.90
53045;DHT22;38930;52.766;6.884;2024-03-29T11:21:39;12.10;99.90
53045;DHT22;38930;52.766;6.884;2024-03-29T11:24:08;12.50;99.90
53045;DHT22;38930;52.766;6.884;2024-03-29T11:26:35;12.30;99.90
53045;DHT22;38930;52.766;6.884;2024-03-29T11:29:00;12.40;99.90
53045;DHT22;38930;52.766;6.884;2024-03-29T11:31:27;12.50;99.90
53045;DHT22;38930;52.766;6.884;2024-03-29T11:33:53;12.50;99.90
53045;DHT22;38930;52.766;6.884;2024-03-29T11:36:28;12.60;99.90
53045;DHT22;38930;52.766;6.884;2024-03-29T11:38:56;12.70;99.90
53045;DHT22;38930;52.766;6.884;2024-03-29T11:41:26;12.60;99.90
53045;DHT22;38930;52.766;6.884;2024-03-29T11:43:55;12.50;99.90
53045;DHT22;38930;52.766;6.884;2024-03-29T11:46:22;12.50;99.90
53045;DHT22;38930;52.766;6.884;2024-03-29T11:48:48;12.50;99.90
53045;DHT22;38930;52.766;6.884;2024-03-29T11:51:23;12.60;99.90
53045;DHT22;38930;52.766;6.884;2024-03-29T11:53:51;12.60;99.90
53045;DHT22;38930;52.766;6.884;2024-03-29T11:56:18;12.70;99.90
53045;DHT22;38930;52.766;6.884;2024-03-29T11:58:44;12.80;99.90
53045;DHT22;38930;52.766;6.884;2024-03-29T12:01:10;13.00;99.90
53045;DHT22;38930;52.766;6.884;2024-03-29T12:03:39;13.00;99.90
53045;DHT22;38930;52.766;6.884;2024-03-29T12:06:05;13.00;99.90
53045;DHT22;38930;52.766;6.884;2024-03-29T12:08:32;13.00;99.90
53045;DHT22;38930;52.766;6.884;2024-03-29T12:10:59;13.10;99.90
53045;DHT22;38930;52.766;6.884;2024-03-29T12:13:25;13.20;99.90
53045;DHT22;38930;52.766;6.884;2024-03-29T12:15:51;13.40;99.90
53045;DHT22;38930;52.766;6.884;2024-03-29T12:18:20;13.50;99.90
53045;DHT22;38930;52.766;6.884;2024-03-29T12:20:47;13.50;99.90
53045;DHT22;38930;52.766;6.884;2024-03-29T12:23:16;13.50;99.90
53045;DHT22;38930;52.766;6.884;2024-03-29T12:25:41;13.40;99.90
53045;DHT22;38930;52.766;6.884;2024-03-29T12:28:08;13.30;99.90
53045;DHT22;38930;52.766;6.884;2024-03-29T12:30:34;13.20;99.90
53045;DHT22;38930;52.766;6.884;2024-03-29T12:33:09;13.40;99.90
53045;DHT22;38930;52.766;6.884;2024-03-29T12:35:36;13.40;99.90
53045;DHT22;38930;52.766;6.884;2024-03-29T12:38:03;13.40;99.90
53045;DHT22;38930;52.766;6.884;2024-03-29T12:40:31;13.40;99.90
53045;DHT22;38930;52.766;6.884;2024-03-29T12:43:06;13.50;99.90
53045;DHT22;38930;52.766;6.884;2024-03-29T12:45:33;13.50;99.90
53045;DHT22;38930;52.766;6.884;2024-03-29T12:47:58;13.40;99.90
53045;DHT22;38930;52.766;6.884;2024-03-29T12:50:28;13.30;99.90
53045;DHT22;38930;52.766;6.884;2024-03-29T12:52:58;13.30;99.90
53045;DHT22;38930;52.766;6.884;2024-03-29T12:55:26;13.30;99.90
53045;DHT22;38930;52.766;6.884;2024-03-29T12:58:02;13.20;99.90
53045;DHT22;38930;52.766;6.884;2024-03-29T13:00:30;13.10;99.90
53045;DHT22;38930;52.766;6.884;2024-03-29T13:02:56;13.20;99.90
53045;DHT22;38930;52.766;6.884;2024-03-29T13:05:21;13.10;99.90
53045;DHT22;38930;52.766;6.884;2024-03-29T13:07:47;13.00;99.90
53045;DHT22;38930;52.766;6.884;2024-03-29T13:10:13;13.00;99.90
53045;DHT22;38930;52.766;6.884;2024-03-29T13:12:43;13.00;99.90
53045;DHT22;38930;52.766;6.884;2024-03-29T13:15:22;13.00;99.90
53045;DHT22;38930;52.766;6.884;2024-03-29T13:17:51;13.10;99.90
53045;DHT22;38930;52.766;6.884;2024-03-29T13:20:17;13.20;99.90
53045;DHT22;38930;52.766;6.884;2024-03-29T13:22:44;13.20;99.90
53045;DHT22;38930;52.766;6.884;2024-03-29T13:25:12;13.20;99.90
53045;DHT22;38930;52.766;6.884;2024-03-29T13:27:41;13.30;99.90
53045;DHT22;38930;52.766;6.884;2024-03-29T13:30:09;13.40;99.90
53045;DHT22;38930;52.766;6.884;2024-03-29T13:32:35;13.40;99.90
53045;DHT22;38930;52.766;6.884;2024-03-29T13:35:02;13.50;99.90
53045;DHT22;38930;52.766;6.884;2024-03-29T13:37:33;13.60;99.90
53045;DHT22;38930;52.766;6.884;2024-03-29T13:39:59;13.60;99.90
53045;DHT22;38930;52.766;6.884;2024-03-29T13:42:24;13.60;99.90
53045;DHT22;38930;52.766;6.884;2024-03-29T13:44:50;13.70;99.90
53045;DHT22;38930;52.766;6.884;2024-03-29T13:47:17;13.80;99.90
53045;DHT22;38930;52.766;6.884;2024-03-29T13:49:43;13.80;99.90
53045;DHT22;38930;52.766;6.884;2024-03-29T13:52:09;13.90;99.90
53045;DHT22;38930;52.766;6.884;2024-03-29T13:54:34;14.00;99.90
53045;DHT22;38930;52.766;6.884;2024-03-29T13:57:00;14.10;99.90
53045;DHT22;38930;52.766;6.884;2024-03-29T13:59:27;14.00;99.90
53045;DHT22;38930;52.766;6.884;2024-03-29T14:01:53;14.10;99.90
53045;DHT22;38930;52.766;6.884;2024-03-29T14:04:18;14.00;99.90
53045;DHT22;38930;52.766;6.884;2024-03-29T14:06:44;14.10;99.90
53045;DHT22;38930;52.766;6.884;2024-03-29T14:09:10;14.00;99.90
53045;DHT22;38930;52.766;6.884;2024-03-29T14:11:35;14.00;99.90
53045;DHT22;38930;52.766;6.884;2024-03-29T14:14:01;14.00;99.90
53045;DHT22;38930;52.766;6.884;2024-03-29T14:16:26;14.10;99.90
53045;DHT22;38930;52.766;6.884;2024-03-29T14:18:52;14.20;99.90
53045;DHT22;38930;52.766;6.884;2024-03-29T14:21:17;14.30;99.90
53045;DHT22;38930;52.766;6.884;2024-03-29T14:23:43;14.20;99.90
53045;DHT22;38930;52.766;6.884;2024-03-29T14:26:08;14.20;99.90
53045;DHT22;38930;52.766;6.884;2024-03-29T14:28:34;14.30;99.90
53045;DHT22;38930;52.766;6.884;2024-03-29T14:31:01;14.30;99.90
53045;DHT22;38930;52.766;6.884;2024-03-29T14:33:26;14.40;99.90
53045;DHT22;38930;52.766;6.884;2024-03-29T14:35:52;14.40;99.90
53045;DHT22;38930;52.766;6.884;2024-03-29T14:38:18;14.40;99.90
53045;DHT22;38930;52.766;6.884;2024-03-29T14:40:45;14.40;99.90
53045;DHT22;38930;52.766;6.884;2024-03-29T14:43:11;14.50;99.90
53045;DHT22;38930;52.766;6.884;2024-03-29T14:48:06;14.40;99.90
53045;DHT22;38930;52.766;6.884;2024-03-29T14:50:32;14.40;99.90
53045;DHT22;38930;52.766;6.884;2024-03-29T14:52:57;14.40;99.90
53045;DHT22;38930;52.766;6.884;2024-03-29T14:55:23;14.40;99.90
53045;DHT22;38930;52.766;6.884;2024-03-29T14:57:49;14.40;99.90
53045;DHT22;38930;52.766;6.884;2024-03-29T15:00:15;14.40;99.90
53045;DHT22;38930;52.766;6.884;2024-03-29T15:02:41;14.30;99.90
53045;DHT22;38930;52.766;6.884;2024-03-29T15:05:08;14.20;99.90
53045;DHT22;38930;52.766;6.884;2024-03-29T15:07:37;14.30;99.90
53045;DHT22;38930;52.766;6.884;2024-03-29T15:10:02;14.20;99.90
53045;DHT22;38930;52.766;6.884;2024-03-29T15:12:36;14.20;99.90
53045;DHT22;38930;52.766;6.884;2024-03-29T15:15:02;14.10;99.90
53045;DHT22;38930;52.766;6.884;2024-03-29T15:17:28;14.10;99.90
53045;DHT22;38930;52.766;6.884;2024-03-29T15:19:53;14.10;99.90
53045;DHT22;38930;52.766;6.884;2024-03-29T15:22:19;14.10;99.90
53045;DHT22;38930;52.766;6.884;2024-03-29T15:24:44;14.10;99.90
53045;DHT22;38930;52.766;6.884;2024-03-29T15:27:10;14.10;99.90
53045;DHT22;38930;52.766;6.884;2024-03-29T15:29:55;14.10;99.90
53045;DHT22;38930;52.766;6.884;2024-03-29T15:32:22;14.10;99.90
53045;DHT22;38930;52.766;6.884;2024-03-29T15:34:48;14.10;99.90
53045;DHT22;38930;52.766;6.884;2024-03-29T15:37:15;14.10;99.90
53045;DHT22;38930;52.766;6.884;2024-03-29T15:39:40;14.10;99.90